sensor_id;sensor_type;location;lat;lon;timestamp;pressure;altitude;pressure_sealevel;temperature;humidity
35910;BME280;22004;49.120;-0.200;2023-05-12T00:00:55;101647.94;;;12.56;73.36
35910;BME280;22004;49.120;-0.200;2023-05-12T00:03:21;101649.63;;;12.57;73.74
35910;BME280;22004;49.120;-0.200;2023-05-12T00:05:46;101644.75;;;12.52;72.88
35910;BME280;22004;49.120;-0.200;2023-05-12T00:08:12;101647.13;;;12.47;73.48
35910;BME280;22004;49.120;-0.200;2023-05-12T00:10:37;101646.28;;;12.55;73.26
35910;BME280;22004;49.120;-0.200;2023-05-12T00:13:03;101642.69;;;12.62;73.30
35910;BME280;22004;49.120;-0.200;2023-05-12T00:15:28;101646.44;;;12.53;72.78
35910;BME280;22004;49.120;-0.200;2023-05-12T00:17:54;101642.38;;;12.57;72.99
35910;BME280;22004;49.120;-0.200;2023-05-12T00:20:19;101638.19;;;12.47;72.50
35910;BME280;22004;49.120;-0.200;2023-05-12T00:22:45;101639.47;;;12.75;72.59
35910;BME280;22004;49.120;-0.200;2023-05-12T00:25:10;101633.59;;;12.72;72.47
35910;BME280;22004;49.120;-0.200;2023-05-12T00:27:35;101631.78;;;12.64;72.29
35910;BME280;22004;49.120;-0.200;2023-05-12T00:30:01;101642.88;;;12.69;72.28
35910;BME280;22004;49.120;-0.200;2023-05-12T00:32:26;101637.50;;;12.69;72.37
35910;BME280;22004;49.120;-0.200;2023-05-12T00:34:52;101637.31;;;12.71;71.99
35910;BME280;22004;49.120;-0.200;2023-05-12T00:37:18;101630.09;;;12.55;72.16
35910;BME280;22004;49.120;-0.200;2023-05-12T00:39:43;101626.19;;;12.65;72.24
35910;BME280;22004;49.120;-0.200;2023-05-12T00:42:09;101628.75;;;12.59;72.28
35910;BME280;22004;49.120;-0.200;2023-05-12T00:44:36;101624.06;;;12.45;72.37
35910;BME280;22004;49.120;-0.200;2023-05-12T00:47:02;101631.59;;;12.65;71.95
35910;BME280;22004;49.120;-0.200;2023-05-12T00:49:28;101619.84;;;12.42;71.94
35910;BME280;22004;49.120;-0.200;2023-05-12T00:51:54;101624.59;;;12.40;72.47
35910;BME280;22004;49.120;-0.200;2023-05-12T00:54:20;101620.41;;;12.29;72.04
35910;BME280;22004;49.120;-0.200;2023-05-12T00:56:46;101621.19;;;12.38;72.05
35910;BME280;22004;49.120;-0.200;2023-05-12T00:59:11;101618.19;;;12.49;72.55
35910;BME280;22004;49.120;-0.200;2023-05-12T01:01:37;101616.63;;;12.55;72.14
35910;BME280;22004;49.120;-0.200;2023-05-12T01:04:02;101618.50;;;12.54;71.95
35910;BME280;22004;49.120;-0.200;2023-05-12T01:06:34;101617.47;;;12.55;71.76
35910;BME280;22004;49.120;-0.200;2023-05-12T01:09:02;101616.00;;;12.45;72.11
35910;BME280;22004;49.120;-0.200;2023-05-12T01:11:28;101619.72;;;12.35;72.33
35910;BME280;22004;49.120;-0.200;2023-05-12T01:13:53;101616.00;;;12.36;71.96
35910;BME280;22004;49.120;-0.200;2023-05-12T01:16:22;101618.50;;;12.38;72.05
35910;BME280;22004;49.120;-0.200;2023-05-12T01:18:53;101614.84;;;12.39;72.06
35910;BME280;22004;49.120;-0.200;2023-05-12T01:21:20;101618.03;;;12.26;71.71
35910;BME280;22004;49.120;-0.200;2023-05-12T01:23:49;101613.47;;;12.35;72.15
35910;BME280;22004;49.120;-0.200;2023-05-12T01:26:15;101614.66;;;12.32;71.66
35910;BME280;22004;49.120;-0.200;2023-05-12T01:28:41;101617.16;;;12.58;71.10
35910;BME280;22004;49.120;-0.200;2023-05-12T01:31:07;101622.88;;;12.55;71.30
35910;BME280;22004;49.120;-0.200;2023-05-12T01:33:34;101621.88;;;12.48;71.61
35910;BME280;22004;49.120;-0.200;2023-05-12T01:36:00;101619.06;;;12.33;71.78
35910;BME280;22004;49.120;-0.200;2023-05-12T01:38:26;101622.56;;;12.18;71.53
35910;BME280;22004;49.120;-0.200;2023-05-12T01:40:51;101625.97;;;12.20;71.94
35910;BME280;22004;49.120;-0.200;2023-05-12T01:43:16;101623.59;;;12.25;71.51
35910;BME280;22004;49.120;-0.200;2023-05-12T01:45:42;101633.53;;;12.24;71.86
35910;BME280;22004;49.120;-0.200;2023-05-12T01:48:07;101628.50;;;12.05;71.93
35910;BME280;22004;49.120;-0.200;2023-05-12T01:50:32;101631.56;;;10.84;74.87
35910;BME280;22004;49.120;-0.200;2023-05-12T01:52:58;101643.94;;;12.03;73.63
35910;BME280;22004;49.120;-0.200;2023-05-12T01:55:23;101636.19;;;12.32;71.43
35910;BME280;22004;49.120;-0.200;2023-05-12T01:57:49;101634.19;;;12.18;71.31
35910;BME280;22004;49.120;-0.200;2023-05-12T02:00:14;101635.72;;;12.29;71.39
35910;BME280;22004;49.120;-0.200;2023-05-12T02:02:40;101638.59;;;12.19;71.68
35910;BME280;22004;49.120;-0.200;2023-05-12T02:05:07;101636.38;;;12.06;71.84
35910;BME280;22004;49.120;-0.200;2023-05-12T02:07:32;101631.81;;;12.31;71.56
35910;BME280;22004;49.120;-0.200;2023-05-12T02:09:58;101631.19;;;12.05;71.92
35910;BME280;22004;49.120;-0.200;2023-05-12T02:12:23;101631.00;;;12.14;71.79
35910;BME280;22004;49.120;-0.200;2023-05-12T02:14:48;101640.44;;;12.10;71.68
35910;BME280;22004;49.120;-0.200;2023-05-12T02:17:14;101634.88;;;12.04;71.56
35910;BME280;22004;49.120;-0.200;2023-05-12T02:19:39;101638.41;;;12.12;72.06
35910;BME280;22004;49.120;-0.200;2023-05-12T02:22:05;101640.94;;;12.06;71.85
35910;BME280;22004;49.120;-0.200;2023-05-12T02:24:30;101648.16;;;11.97;71.62
35910;BME280;22004;49.120;-0.200;2023-05-12T02:26:56;101653.38;;;11.90;71.75
35910;BME280;22004;49.120;-0.200;2023-05-12T02:29:21;101656.06;;;11.90;72.22
35910;BME280;22004;49.120;-0.200;2023-05-12T02:31:47;101648.31;;;12.12;71.68
35910;BME280;22004;49.120;-0.200;2023-05-12T02:34:12;101646.47;;;12.12;71.65
35910;BME280;22004;49.120;-0.200;2023-05-12T02:36:38;101650.69;;;11.90;71.87
35910;BME280;22004;49.120;-0.200;2023-05-12T02:39:03;101649.84;;;12.06;71.75
35910;BME280;22004;49.120;-0.200;2023-05-12T02:41:29;101652.38;;;12.16;72.16
35910;BME280;22004;49.120;-0.200;2023-05-12T02:43:54;101657.94;;;12.14;71.65
35910;BME280;22004;49.120;-0.200;2023-05-12T02:46:20;101657.03;;;11.81;72.15
35910;BME280;22004;49.120;-0.200;2023-05-12T02:48:45;101663.13;;;12.00;71.51
35910;BME280;22004;49.120;-0.200;2023-05-12T02:51:11;101663.47;;;11.88;71.97
35910;BME280;22004;49.120;-0.200;2023-05-12T02:53:36;101662.09;;;11.93;72.23
35910;BME280;22004;49.120;-0.200;2023-05-12T02:56:01;101658.59;;;12.16;71.60
35910;BME280;22004;49.120;-0.200;2023-05-12T02:58:27;101653.06;;;12.10;71.33
35910;BME280;22004;49.120;-0.200;2023-05-12T03:00:52;101663.31;;;12.14;71.52
35910;BME280;22004;49.120;-0.200;2023-05-12T03:03:17;101661.63;;;12.13;71.36
35910;BME280;22004;49.120;-0.200;2023-05-12T03:05:43;101662.13;;;12.17;71.57
35910;BME280;22004;49.120;-0.200;2023-05-12T03:08:08;101658.44;;;11.94;71.81
35910;BME280;22004;49.120;-0.200;2023-05-12T03:10:34;101665.09;;;11.81;72.07
35910;BME280;22004;49.120;-0.200;2023-05-12T03:12:59;101660.22;;;11.77;71.74
35910;BME280;22004;49.120;-0.200;2023-05-12T03:15:25;101655.03;;;11.83;71.90
35910;BME280;22004;49.120;-0.200;2023-05-12T03:17:50;101652.19;;;11.93;71.80
35910;BME280;22004;49.120;-0.200;2023-05-12T03:20:15;101654.22;;;11.99;71.35
35910;BME280;22004;49.120;-0.200;2023-05-12T03:22:41;101666.09;;;11.72;71.87
35910;BME280;22004;49.120;-0.200;2023-05-12T03:25:08;101656.16;;;11.73;72.02
35910;BME280;22004;49.120;-0.200;2023-05-12T03:27:34;101663.53;;;11.62;72.44
35910;BME280;22004;49.120;-0.200;2023-05-12T03:30:00;101667.66;;;11.83;72.36
35910;BME280;22004;49.120;-0.200;2023-05-12T03:32:26;101668.50;;;11.92;71.98
35910;BME280;22004;49.120;-0.200;2023-05-12T03:34:52;101666.59;;;11.59;71.99
35910;BME280;22004;49.120;-0.200;2023-05-12T03:37:18;101678.31;;;11.58;71.44
35910;BME280;22004;49.120;-0.200;2023-05-12T03:39:43;101681.75;;;11.69;72.08
35910;BME280;22004;49.120;-0.200;2023-05-12T03:42:09;101679.66;;;11.46;69.08
35910;BME280;22004;49.120;-0.200;2023-05-12T03:44:34;101678.78;;;11.96;71.56
35910;BME280;22004;49.120;-0.200;2023-05-12T03:46:59;101680.56;;;11.79;72.27
35910;BME280;22004;49.120;-0.200;2023-05-12T03:49:25;101684.81;;;11.82;72.02
35910;BME280;22004;49.120;-0.200;2023-05-12T03:51:50;101680.22;;;11.74;71.85
35910;BME280;22004;49.120;-0.200;2023-05-12T03:54:16;101679.56;;;11.80;72.00
35910;BME280;22004;49.120;-0.200;2023-05-12T03:56:41;101678.56;;;11.81;72.15
35910;BME280;22004;49.120;-0.200;2023-05-12T03:59:06;101677.91;;;11.87;72.09
35910;BME280;22004;49.120;-0.200;2023-05-12T04:01:33;101689.19;;;11.91;72.02
35910;BME280;22004;49.120;-0.200;2023-05-12T04:03:58;101687.69;;;11.97;72.16
35910;BME280;22004;49.120;-0.200;2023-05-12T04:06:23;101686.66;;;11.98;71.82
35910;BME280;22004;49.120;-0.200;2023-05-12T04:08:49;101681.31;;;12.06;71.58
35910;BME280;22004;49.120;-0.200;2023-05-12T04:11:14;101678.63;;;12.06;71.87
35910;BME280;22004;49.120;-0.200;2023-05-12T04:13:39;101681.31;;;12.14;71.52
35910;BME280;22004;49.120;-0.200;2023-05-12T04:16:05;101682.13;;;12.06;71.13
35910;BME280;22004;49.120;-0.200;2023-05-12T04:18:30;101678.28;;;12.01;71.51
35910;BME280;22004;49.120;-0.200;2023-05-12T04:20:56;101680.13;;;12.08;71.73
35910;BME280;22004;49.120;-0.200;2023-05-12T04:23:21;101672.41;;;12.13;71.23
35910;BME280;22004;49.120;-0.200;2023-05-12T04:25:47;101683.50;;;12.10;71.39
35910;BME280;22004;49.120;-0.200;2023-05-12T04:28:12;101675.66;;;11.67;69.65
35910;BME280;22004;49.120;-0.200;2023-05-12T04:30:39;101683.47;;;11.86;72.09
35910;BME280;22004;49.120;-0.200;2023-05-12T04:33:04;101684.34;;;11.95;71.76
35910;BME280;22004;49.120;-0.200;2023-05-12T04:35:30;101686.84;;;11.96;71.46
35910;BME280;22004;49.120;-0.200;2023-05-12T04:37:55;101683.16;;;11.89;71.69
35910;BME280;22004;49.120;-0.200;2023-05-12T04:40:21;101678.09;;;11.94;71.29
35910;BME280;22004;49.120;-0.200;2023-05-12T04:42:46;101684.94;;;11.80;71.74
35910;BME280;22004;49.120;-0.200;2023-05-12T04:45:12;101695.75;;;11.88;71.47
35910;BME280;22004;49.120;-0.200;2023-05-12T04:47:37;101690.19;;;11.82;71.51
35910;BME280;22004;49.120;-0.200;2023-05-12T04:50:03;101694.22;;;11.86;71.32
35910;BME280;22004;49.120;-0.200;2023-05-12T04:52:29;101692.00;;;11.81;71.40
35910;BME280;22004;49.120;-0.200;2023-05-12T04:54:54;101691.06;;;11.99;71.14
35910;BME280;22004;49.120;-0.200;2023-05-12T04:57:20;101699.13;;;11.99;70.99
35910;BME280;22004;49.120;-0.200;2023-05-12T04:59:45;101698.44;;;11.97;71.05
35910;BME280;22004;49.120;-0.200;2023-05-12T05:02:10;101702.31;;;11.94;71.13
35910;BME280;22004;49.120;-0.200;2023-05-12T05:04:37;101707.03;;;12.00;70.91
35910;BME280;22004;49.120;-0.200;2023-05-12T05:07:02;101707.53;;;11.96;70.96
35910;BME280;22004;49.120;-0.200;2023-05-12T05:09:28;101711.09;;;12.21;71.19
35910;BME280;22004;49.120;-0.200;2023-05-12T05:11:53;101703.69;;;12.14;70.24
35910;BME280;22004;49.120;-0.200;2023-05-12T05:14:18;101715.28;;;11.99;70.89
35910;BME280;22004;49.120;-0.200;2023-05-12T05:16:44;101714.78;;;12.11;70.69
35910;BME280;22004;49.120;-0.200;2023-05-12T05:19:10;101716.78;;;12.18;70.90
35910;BME280;22004;49.120;-0.200;2023-05-12T05:21:37;101720.19;;;12.20;70.69
35910;BME280;22004;49.120;-0.200;2023-05-12T05:24:02;101724.22;;;12.15;70.47
35910;BME280;22004;49.120;-0.200;2023-05-12T05:26:28;101727.25;;;12.21;70.24
35910;BME280;22004;49.120;-0.200;2023-05-12T05:28:53;101728.41;;;12.26;70.66
35910;BME280;22004;49.120;-0.200;2023-05-12T05:31:19;101735.66;;;12.26;70.51
35910;BME280;22004;49.120;-0.200;2023-05-12T05:33:45;101727.25;;;12.45;70.30
35910;BME280;22004;49.120;-0.200;2023-05-12T05:36:11;101737.84;;;12.30;70.41
35910;BME280;22004;49.120;-0.200;2023-05-12T05:38:37;101735.34;;;12.29;70.48
35910;BME280;22004;49.120;-0.200;2023-05-12T05:41:03;101744.25;;;12.46;69.99
35910;BME280;22004;49.120;-0.200;2023-05-12T05:43:28;101742.91;;;12.41;70.03
35910;BME280;22004;49.120;-0.200;2023-05-12T05:45:54;101750.13;;;12.41;69.76
35910;BME280;22004;49.120;-0.200;2023-05-12T05:48:21;101751.97;;;12.57;69.52
35910;BME280;22004;49.120;-0.200;2023-05-12T05:50:47;101757.19;;;12.66;69.66
35910;BME280;22004;49.120;-0.200;2023-05-12T05:53:12;101754.69;;;12.57;69.77
35910;BME280;22004;49.120;-0.200;2023-05-12T05:55:37;101748.78;;;12.45;70.39
35910;BME280;22004;49.120;-0.200;2023-05-12T05:58:03;101766.47;;;12.80;69.46
35910;BME280;22004;49.120;-0.200;2023-05-12T06:00:28;101762.56;;;12.83;69.52
35910;BME280;22004;49.120;-0.200;2023-05-12T06:02:53;101766.13;;;12.83;69.34
35910;BME280;22004;49.120;-0.200;2023-05-12T06:05:19;101763.25;;;12.93;69.31
35910;BME280;22004;49.120;-0.200;2023-05-12T06:07:44;101765.63;;;12.80;68.66
35910;BME280;22004;49.120;-0.200;2023-05-12T06:10:10;101766.09;;;12.91;69.28
35910;BME280;22004;49.120;-0.200;2023-05-12T06:12:35;101766.78;;;12.93;68.92
35910;BME280;22004;49.120;-0.200;2023-05-12T06:15:01;101766.28;;;12.82;69.40
35910;BME280;22004;49.120;-0.200;2023-05-12T06:17:26;101766.78;;;12.85;69.51
35910;BME280;22004;49.120;-0.200;2023-05-12T06:19:51;101767.09;;;13.23;68.52
35910;BME280;22004;49.120;-0.200;2023-05-12T06:22:17;101765.38;;;13.30;67.88
35910;BME280;22004;49.120;-0.200;2023-05-12T06:24:42;101772.78;;;13.12;68.59
35910;BME280;22004;49.120;-0.200;2023-05-12T06:27:07;101771.25;;;13.34;68.33
35910;BME280;22004;49.120;-0.200;2023-05-12T06:29:33;101772.97;;;14.51;64.64
35910;BME280;22004;49.120;-0.200;2023-05-12T06:31:58;101771.22;;;13.81;66.57
35910;BME280;22004;49.120;-0.200;2023-05-12T06:34:24;101767.91;;;15.23;62.58
35910;BME280;22004;49.120;-0.200;2023-05-12T06:36:50;101770.81;;;15.66;61.05
35910;BME280;22004;49.120;-0.200;2023-05-12T06:39:15;101770.97;;;15.35;62.18
35910;BME280;22004;49.120;-0.200;2023-05-12T06:41:40;101766.66;;;15.56;61.46
35910;BME280;22004;49.120;-0.200;2023-05-12T06:44:06;101768.81;;;15.75;60.79
35910;BME280;22004;49.120;-0.200;2023-05-12T06:46:39;101772.66;;;15.66;61.27
35910;BME280;22004;49.120;-0.200;2023-05-12T06:49:05;101771.78;;;15.50;61.41
35910;BME280;22004;49.120;-0.200;2023-05-12T06:51:30;101779.84;;;15.29;62.20
35910;BME280;22004;49.120;-0.200;2023-05-12T06:53:56;101778.91;;;15.37;62.75
35910;BME280;22004;49.120;-0.200;2023-05-12T06:56:21;101773.38;;;15.74;61.77
35910;BME280;22004;49.120;-0.200;2023-05-12T06:58:50;101779.00;;;15.73;61.95
35910;BME280;22004;49.120;-0.200;2023-05-12T07:01:16;101785.28;;;14.91;64.49
35910;BME280;22004;49.120;-0.200;2023-05-12T07:03:42;101779.75;;;15.22;63.47
35910;BME280;22004;49.120;-0.200;2023-05-12T07:06:08;101787.56;;;15.03;63.91
35910;BME280;22004;49.120;-0.200;2023-05-12T07:08:33;101797.97;;;14.22;66.91
35910;BME280;22004;49.120;-0.200;2023-05-12T07:10:59;101793.66;;;14.36;66.72
35910;BME280;22004;49.120;-0.200;2023-05-12T07:13:25;101795.34;;;14.37;66.45
35910;BME280;22004;49.120;-0.200;2023-05-12T07:15:50;101794.22;;;14.00;67.84
35910;BME280;22004;49.120;-0.200;2023-05-12T07:18:15;101792.34;;;14.09;68.13
35910;BME280;22004;49.120;-0.200;2023-05-12T07:20:41;101795.19;;;14.38;68.20
35910;BME280;22004;49.120;-0.200;2023-05-12T07:23:06;101796.34;;;15.34;64.51
35910;BME280;22004;49.120;-0.200;2023-05-12T07:25:33;101791.69;;;15.72;63.71
35910;BME280;22004;49.120;-0.200;2023-05-12T07:27:58;101790.72;;;15.95;66.39
35910;BME280;22004;49.120;-0.200;2023-05-12T07:30:24;101783.44;;;16.60;61.98
35910;BME280;22004;49.120;-0.200;2023-05-12T07:32:49;101789.72;;;16.39;64.10
35910;BME280;22004;49.120;-0.200;2023-05-12T07:35:14;101788.91;;;17.85;59.27
35910;BME280;22004;49.120;-0.200;2023-05-12T07:37:40;101788.75;;;17.17;61.59
35910;BME280;22004;49.120;-0.200;2023-05-12T07:40:06;101785.00;;;18.01;59.16
35910;BME280;22004;49.120;-0.200;2023-05-12T07:42:31;101789.75;;;19.00;58.17
35910;BME280;22004;49.120;-0.200;2023-05-12T07:44:57;101792.69;;;17.15;61.11
35910;BME280;22004;49.120;-0.200;2023-05-12T07:47:22;101789.38;;;19.68;56.76
35910;BME280;22004;49.120;-0.200;2023-05-12T07:49:47;101782.41;;;19.07;55.98
35910;BME280;22004;49.120;-0.200;2023-05-12T07:52:13;101793.31;;;18.80;55.57
35910;BME280;22004;49.120;-0.200;2023-05-12T07:54:38;101785.97;;;19.79;54.18
35910;BME280;22004;49.120;-0.200;2023-05-12T07:57:04;101785.31;;;19.19;55.45
35910;BME280;22004;49.120;-0.200;2023-05-12T07:59:29;101783.91;;;18.70;58.09
35910;BME280;22004;49.120;-0.200;2023-05-12T08:01:54;101784.59;;;19.70;54.85
35910;BME280;22004;49.120;-0.200;2023-05-12T08:04:20;101786.38;;;19.89;54.79
35910;BME280;22004;49.120;-0.200;2023-05-12T08:06:45;101782.31;;;19.47;55.23
35910;BME280;22004;49.120;-0.200;2023-05-12T08:09:10;101782.69;;;20.47;51.09
35910;BME280;22004;49.120;-0.200;2023-05-12T08:11:36;101786.50;;;18.23;57.33
35910;BME280;22004;49.120;-0.200;2023-05-12T08:14:01;101793.16;;;16.47;63.90
35910;BME280;22004;49.120;-0.200;2023-05-12T08:16:26;101796.31;;;16.51;65.01
35910;BME280;22004;49.120;-0.200;2023-05-12T08:18:52;101792.28;;;16.68;63.10
35910;BME280;22004;49.120;-0.200;2023-05-12T08:21:17;101795.97;;;17.10;61.25
35910;BME280;22004;49.120;-0.200;2023-05-12T08:23:43;101789.59;;;16.25;64.82
35910;BME280;22004;49.120;-0.200;2023-05-12T08:26:08;101794.81;;;16.70;62.69
35910;BME280;22004;49.120;-0.200;2023-05-12T08:28:34;101796.78;;;17.04;62.95
35910;BME280;22004;49.120;-0.200;2023-05-12T08:30:59;101791.03;;;17.55;63.20
35910;BME280;22004;49.120;-0.200;2023-05-12T08:33:26;101801.81;;;16.79;64.50
35910;BME280;22004;49.120;-0.200;2023-05-12T08:35:51;101797.22;;;16.00;64.24
35910;BME280;22004;49.120;-0.200;2023-05-12T08:38:17;101809.13;;;15.85;65.85
35910;BME280;22004;49.120;-0.200;2023-05-12T08:43:41;101809.47;;;16.97;63.69
35910;BME280;22004;49.120;-0.200;2023-05-12T08:46:06;101808.00;;;16.73;64.40
35910;BME280;22004;49.120;-0.200;2023-05-12T08:48:32;101817.34;;;15.91;64.92
35910;BME280;22004;49.120;-0.200;2023-05-12T08:50:59;101812.97;;;16.26;64.27
35910;BME280;22004;49.120;-0.200;2023-05-12T08:53:26;101808.25;;;15.99;64.45
35910;BME280;22004;49.120;-0.200;2023-05-12T08:55:53;101819.06;;;16.14;64.85
35910;BME280;22004;49.120;-0.200;2023-05-12T08:58:19;101828.19;;;15.76;64.54
35910;BME280;22004;49.120;-0.200;2023-05-12T09:00:45;101821.03;;;15.16;66.16
35910;BME280;22004;49.120;-0.200;2023-05-12T09:03:12;101825.72;;;15.22;67.35
35910;BME280;22004;49.120;-0.200;2023-05-12T09:05:39;101833.47;;;15.25;66.49
35910;BME280;22004;49.120;-0.200;2023-05-12T09:08:05;101836.81;;;14.75;66.93
35910;BME280;22004;49.120;-0.200;2023-05-12T09:10:31;101839.34;;;14.91;67.05
35910;BME280;22004;49.120;-0.200;2023-05-12T09:13:02;101829.84;;;15.63;64.75
35910;BME280;22004;49.120;-0.200;2023-05-12T09:15:36;101841.78;;;15.24;64.96
35910;BME280;22004;49.120;-0.200;2023-05-12T09:18:03;101844.91;;;14.75;65.88
35910;BME280;22004;49.120;-0.200;2023-05-12T09:20:28;101840.22;;;15.74;64.58
35910;BME280;22004;49.120;-0.200;2023-05-12T09:22:54;101844.47;;;14.86;67.01
35910;BME280;22004;49.120;-0.200;2023-05-12T09:25:22;101843.22;;;14.20;68.38
35910;BME280;22004;49.120;-0.200;2023-05-12T09:27:52;101843.81;;;14.84;67.21
35910;BME280;22004;49.120;-0.200;2023-05-12T09:30:28;101836.50;;;15.75;64.60
35910;BME280;22004;49.120;-0.200;2023-05-12T09:33:06;101830.88;;;15.47;64.43
35910;BME280;22004;49.120;-0.200;2023-05-12T09:35:40;101836.28;;;15.32;64.90
35910;BME280;22004;49.120;-0.200;2023-05-12T09:38:10;101826.13;;;15.49;64.34
35910;BME280;22004;49.120;-0.200;2023-05-12T09:40:36;101840.03;;;15.75;63.45
35910;BME280;22004;49.120;-0.200;2023-05-12T09:43:04;101833.97;;;15.88;63.67
35910;BME280;22004;49.120;-0.200;2023-05-12T09:45:32;101838.06;;;15.99;62.72
35910;BME280;22004;49.120;-0.200;2023-05-12T09:48:06;101832.91;;;16.62;62.29
35910;BME280;22004;49.120;-0.200;2023-05-12T09:50:32;101830.47;;;16.67;62.85
35910;BME280;22004;49.120;-0.200;2023-05-12T09:52:57;101832.88;;;15.68;64.59
35910;BME280;22004;49.120;-0.200;2023-05-12T09:55:22;101838.97;;;15.17;66.42
35910;BME280;22004;49.120;-0.200;2023-05-12T09:57:48;101832.31;;;14.67;67.54
35910;BME280;22004;49.120;-0.200;2023-05-12T10:00:14;101842.88;;;14.54;67.81
35910;BME280;22004;49.120;-0.200;2023-05-12T10:02:42;101837.19;;;14.41;68.27
35910;BME280;22004;49.120;-0.200;2023-05-12T10:05:13;101841.81;;;14.32;69.34
35910;BME280;22004;49.120;-0.200;2023-05-12T10:07:41;101842.06;;;14.45;68.86
35910;BME280;22004;49.120;-0.200;2023-05-12T10:10:10;101843.88;;;13.91;70.77
35910;BME280;22004;49.120;-0.200;2023-05-12T10:12:37;101836.88;;;14.13;70.73
35910;BME280;22004;49.120;-0.200;2023-05-12T10:15:03;101843.00;;;13.99;71.13
35910;BME280;22004;49.120;-0.200;2023-05-12T10:17:28;101827.06;;;14.12;71.73
35910;BME280;22004;49.120;-0.200;2023-05-12T10:19:55;101835.13;;;14.20;72.12
35910;BME280;22004;49.120;-0.200;2023-05-12T10:22:21;101841.75;;;14.40;70.85
35910;BME280;22004;49.120;-0.200;2023-05-12T10:24:47;101840.06;;;14.39;71.79
35910;BME280;22004;49.120;-0.200;2023-05-12T10:27:14;101835.53;;;14.09;72.24
35910;BME280;22004;49.120;-0.200;2023-05-12T10:29:41;101835.16;;;14.12;73.08
35910;BME280;22004;49.120;-0.200;2023-05-12T10:32:07;101836.16;;;14.42;71.04
35910;BME280;22004;49.120;-0.200;2023-05-12T10:34:34;101840.41;;;14.36;71.59
35910;BME280;22004;49.120;-0.200;2023-05-12T10:37:03;101836.16;;;14.19;72.20
35910;BME280;22004;49.120;-0.200;2023-05-12T10:39:32;101832.63;;;13.87;74.09
35910;BME280;22004;49.120;-0.200;2023-05-12T10:42:05;101835.22;;;14.04;73.54
35910;BME280;22004;49.120;-0.200;2023-05-12T10:44:33;101844.06;;;14.52;71.28
35910;BME280;22004;49.120;-0.200;2023-05-12T10:46:58;101840.38;;;14.53;70.91
35910;BME280;22004;49.120;-0.200;2023-05-12T10:49:34;101842.16;;;14.60;70.70
35910;BME280;22004;49.120;-0.200;2023-05-12T10:52:03;101848.41;;;14.30;72.24
35910;BME280;22004;49.120;-0.200;2023-05-12T10:54:42;101849.63;;;14.27;71.49
35910;BME280;22004;49.120;-0.200;2023-05-12T10:57:15;101847.50;;;14.68;70.35
35910;BME280;22004;49.120;-0.200;2023-05-12T10:59:55;101843.97;;;15.06;70.55
35910;BME280;22004;49.120;-0.200;2023-05-12T11:02:25;101842.03;;;15.14;70.67
35910;BME280;22004;49.120;-0.200;2023-05-12T11:04:56;101847.38;;;14.85;71.41
35910;BME280;22004;49.120;-0.200;2023-05-12T11:07:27;101847.75;;;14.59;71.01
35910;BME280;22004;49.120;-0.200;2023-05-12T11:09:58;101842.38;;;15.11;68.94
35910;BME280;22004;49.120;-0.200;2023-05-12T11:12:28;101835.22;;;15.04;68.92
35910;BME280;22004;49.120;-0.200;2023-05-12T11:14:58;101838.16;;;15.46;67.91
35910;BME280;22004;49.120;-0.200;2023-05-12T11:17:24;101847.00;;;15.40;68.55
35910;BME280;22004;49.120;-0.200;2023-05-12T11:19:50;101841.97;;;15.37;68.19
35910;BME280;22004;49.120;-0.200;2023-05-12T11:22:19;101842.34;;;14.96;70.34
35910;BME280;22004;49.120;-0.200;2023-05-12T11:24:46;101836.66;;;15.29;69.96
35910;BME280;22004;49.120;-0.200;2023-05-12T11:27:14;101840.81;;;15.02;69.72
35910;BME280;22004;49.120;-0.200;2023-05-12T11:29:40;101844.75;;;15.29;70.57
35910;BME280;22004;49.120;-0.200;2023-05-12T11:32:10;101846.81;;;15.12;69.94
35910;BME280;22004;49.120;-0.200;2023-05-12T11:34:38;101846.91;;;14.27;71.84
35910;BME280;22004;49.120;-0.200;2023-05-12T11:37:04;101859.09;;;14.23;72.09
35910;BME280;22004;49.120;-0.200;2023-05-12T11:39:30;101855.06;;;14.50;71.11
35910;BME280;22004;49.120;-0.200;2023-05-12T11:42:01;101865.09;;;14.02;72.13
35910;BME280;22004;49.120;-0.200;2023-05-12T11:44:28;101861.50;;;14.41;71.64
35910;BME280;22004;49.120;-0.200;2023-05-12T11:47:00;101865.75;;;14.12;72.59
35910;BME280;22004;49.120;-0.200;2023-05-12T11:49:27;101864.56;;;14.38;73.00
35910;BME280;22004;49.120;-0.200;2023-05-12T11:51:54;101859.94;;;14.46;72.30
35910;BME280;22004;49.120;-0.200;2023-05-12T11:54:21;101858.19;;;14.31;71.58
35910;BME280;22004;49.120;-0.200;2023-05-12T11:56:54;101862.63;;;14.55;71.10
35910;BME280;22004;49.120;-0.200;2023-05-12T11:59:33;101855.25;;;14.40;72.35
35910;BME280;22004;49.120;-0.200;2023-05-12T12:02:00;101854.56;;;14.15;71.89
35910;BME280;22004;49.120;-0.200;2023-05-12T12:04:37;101865.97;;;14.57;71.68
35910;BME280;22004;49.120;-0.200;2023-05-12T12:07:06;101862.81;;;14.76;72.76
35910;BME280;22004;49.120;-0.200;2023-05-12T12:09:39;101862.16;;;14.74;72.39
35910;BME280;22004;49.120;-0.200;2023-05-12T12:12:07;101860.03;;;14.61;71.99
35910;BME280;22004;49.120;-0.200;2023-05-12T12:14:35;101861.25;;;14.59;72.36
35910;BME280;22004;49.120;-0.200;2023-05-12T12:17:02;101868.81;;;14.01;74.01
35910;BME280;22004;49.120;-0.200;2023-05-12T12:19:27;101868.56;;;13.80;74.61
35910;BME280;22004;49.120;-0.200;2023-05-12T12:21:54;101871.06;;;13.89;75.17
35910;BME280;22004;49.120;-0.200;2023-05-12T12:24:19;101866.53;;;13.82;75.26
35910;BME280;22004;49.120;-0.200;2023-05-12T12:26:45;101869.72;;;13.85;74.26
35910;BME280;22004;49.120;-0.200;2023-05-12T12:29:10;101875.34;;;14.07;73.59
35910;BME280;22004;49.120;-0.200;2023-05-12T12:31:35;101875.41;;;13.99;74.67
35910;BME280;22004;49.120;-0.200;2023-05-12T12:34:02;101876.69;;;13.71;74.83
35910;BME280;22004;49.120;-0.200;2023-05-12T12:36:28;101881.47;;;14.01;75.17
35910;BME280;22004;49.120;-0.200;2023-05-12T12:38:54;101887.56;;;14.03;74.94